sensor_id;sensor_type;location;lat;lon;timestamp;temperature;humidity
43862;DHT22;29510;52.140;5.034;2023-04-06T00:09:22;6.50;1.00
43862;DHT22;29510;52.140;5.034;2023-04-06T00:19:23;6.50;1.00
43862;DHT22;29510;52.140;5.034;2023-04-06T00:29:24;6.40;1.00
43862;DHT22;29510;52.140;5.034;2023-04-06T00:39:25;6.40;1.00
43862;DHT22;29510;52.140;5.034;2023-04-06T00:49:26;6.30;1.00
43862;DHT22;29510;52.140;5.034;2023-04-06T00:59:28;6.30;1.00
43862;DHT22;29510;52.140;5.034;2023-04-06T01:09:30;6.20;1.00
43862;DHT22;29510;52.140;5.034;2023-04-06T01:19:31;6.30;1.00
43862;DHT22;29510;52.140;5.034;2023-04-06T01:29:32;6.30;1.00
43862;DHT22;29510;52.140;5.034;2023-04-06T01:39:33;6.30;1.00
43862;DHT22;29510;52.140;5.034;2023-04-06T01:49:34;6.40;1.00
43862;DHT22;29510;52.140;5.034;2023-04-06T01:59:35;6.40;1.00
43862;DHT22;29510;52.140;5.034;2023-04-06T02:09:36;6.40;1.00
43862;DHT22;29510;52.140;5.034;2023-04-06T02:19:37;6.40;1.00
43862;DHT22;29510;52.140;5.034;2023-04-06T02:29:38;6.50;1.00
43862;DHT22;29510;52.140;5.034;2023-04-06T02:39:39;6.50;1.00
43862;DHT22;29510;52.140;5.034;2023-04-06T02:49:41;6.40;1.00
43862;DHT22;29510;52.140;5.034;2023-04-06T02:59:42;6.30;1.00
43862;DHT22;29510;52.140;5.034;2023-04-06T03:09:43;6.30;1.00
43862;DHT22;29510;52.140;5.034;2023-04-06T03:19:44;6.20;1.00
43862;DHT22;29510;52.140;5.034;2023-04-06T03:29:45;6.10;1.00
43862;DHT22;29510;52.140;5.034;2023-04-06T03:39:46;6.00;1.00
43862;DHT22;29510;52.140;5.034;2023-04-06T03:49:47;6.10;1.00
43862;DHT22;29510;52.140;5.034;2023-04-06T03:59:48;6.10;1.00
43862;DHT22;29510;52.140;5.034;2023-04-06T04:09:49;6.20;1.00
43862;DHT22;29510;52.140;5.034;2023-04-06T04:19:51;6.30;1.00
43862;DHT22;29510;52.140;5.034;2023-04-06T04:30:12;6.30;1.00
43862;DHT22;29510;52.140;5.034;2023-04-06T04:40:33;6.30;1.00
43862;DHT22;29510;52.140;5.034;2023-04-06T04:50:54;6.30;1.00
43862;DHT22;29510;52.140;5.034;2023-04-06T05:01:15;6.40;1.00
43862;DHT22;29510;52.140;5.034;2023-04-06T05:11:36;6.40;1.00
43862;DHT22;29510;52.140;5.034;2023-04-06T05:21:57;6.40;1.00
43862;DHT22;29510;52.140;5.034;2023-04-06T05:32:18;6.30;1.00
43862;DHT22;29510;52.140;5.034;2023-04-06T05:42:42;6.30;1.00
43862;DHT22;29510;52.140;5.034;2023-04-06T05:53:03;6.20;1.00
43862;DHT22;29510;52.140;5.034;2023-04-06T06:03:24;6.40;1.00
43862;DHT22;29510;52.140;5.034;2023-04-06T06:13:45;6.60;1.00
43862;DHT22;29510;52.140;5.034;2023-04-06T06:24:07;6.80;1.00
43862;DHT22;29510;52.140;5.034;2023-04-06T06:34:28;7.00;1.00
43862;DHT22;29510;52.140;5.034;2023-04-06T06:44:49;7.00;1.00
43862;DHT22;29510;52.140;5.034;2023-04-06T06:55:10;7.00;1.00
43862;DHT22;29510;52.140;5.034;2023-04-06T07:05:32;7.00;1.00
43862;DHT22;29510;52.140;5.034;2023-04-06T07:15:53;7.00;1.00
43862;DHT22;29510;52.140;5.034;2023-04-06T07:26:14;7.00;1.00
43862;DHT22;29510;52.140;5.034;2023-04-06T07:36:35;7.20;1.00
43862;DHT22;29510;52.140;5.034;2023-04-06T07:46:56;7.40;1.00
43862;DHT22;29510;52.140;5.034;2023-04-06T07:56:57;7.60;1.00
43862;DHT22;29510;52.140;5.034;2023-04-06T08:06:58;8.00;1.00
43862;DHT22;29510;52.140;5.034;2023-04-06T08:16:59;8.20;1.00
43862;DHT22;29510;52.140;5.034;2023-04-06T08:27:00;8.40;1.00
43862;DHT22;29510;52.140;5.034;2023-04-06T08:37:01;8.50;1.00
43862;DHT22;29510;52.140;5.034;2023-04-06T08:47:04;8.50;1.00
43862;DHT22;29510;52.140;5.034;2023-04-06T08:57:06;8.60;1.00
43862;DHT22;29510;52.140;5.034;2023-04-06T09:07:08;8.50;1.00
43862;DHT22;29510;52.140;5.034;2023-04-06T09:17:20;8.40;1.00
43862;DHT22;29510;52.140;5.034;2023-04-06T09:27:32;8.60;1.00
43862;DHT22;29510;52.140;5.034;2023-04-06T09:37:34;8.50;1.00
43862;DHT22;29510;52.140;5.034;2023-04-06T09:47:36;8.40;1.00
43862;DHT22;29510;52.140;5.034;2023-04-06T10:07:54;8.50;1.00
43862;DHT22;29510;52.140;5.034;2023-04-06T10:18:00;8.60;1.00
43862;DHT22;29510;52.140;5.034;2023-04-06T10:28:08;8.60;1.00
43862;DHT22;29510;52.140;5.034;2023-04-06T10:38:09;8.80;1.00
43862;DHT22;29510;52.140;5.034;2023-04-06T10:48:16;8.70;1.00
43862;DHT22;29510;52.140;5.034;2023-04-06T10:58:18;8.70;1.00
43862;DHT22;29510;52.140;5.034;2023-04-06T11:08:29;8.70;1.00
43862;DHT22;29510;52.140;5.034;2023-04-06T11:18:31;8.70;1.00
43862;DHT22;29510;52.140;5.034;2023-04-06T11:28:32;8.70;1.00
43862;DHT22;29510;52.140;5.034;2023-04-06T11:38:33;8.40;1.00
43862;DHT22;29510;52.140;5.034;2023-04-06T11:48:44;8.40;8.40
43862;DHT22;29510;52.140;5.034;2023-04-06T11:58:45;8.40;14.40
43862;DHT22;29510;52.140;5.034;2023-04-06T12:08:46;8.20;16.80
43862;DHT22;29510;52.140;5.034;2023-04-06T12:18:47;8.20;32.90
43862;DHT22;29510;52.140;5.034;2023-04-06T12:28:49;8.20;39.70
43862;DHT22;29510;52.140;5.034;2023-04-06T12:38:51;8.10;43.70
43862;DHT22;29510;52.140;5.034;2023-04-06T12:48:53;8.20;73.90
43862;DHT22;29510;52.140;5.034;2023-04-06T12:58:54;8.10;99.00
43862;DHT22;29510;52.140;5.034;2023-04-06T13:08:56;8.10;99.90
43862;DHT22;29510;52.140;5.034;2023-04-06T13:18:57;8.10;99.90
43862;DHT22;29510;52.140;5.034;2023-04-06T13:28:59;8.10;99.90
43862;DHT22;29510;52.140;5.034;2023-04-06T13:39:01;8.10;99.90
43862;DHT22;29510;52.140;5.034;2023-04-06T13:49:02;8.20;99.90
43862;DHT22;29510;52.140;5.034;2023-04-06T13:59:03;8.10;99.90
43862;DHT22;29510;52.140;5.034;2023-04-06T14:09:04;8.10;99.90
43862;DHT22;29510;52.140;5.034;2023-04-06T14:19:05;8.00;99.90
43862;DHT22;29510;52.140;5.034;2023-04-06T14:29:06;8.00;99.90
43862;DHT22;29510;52.140;5.034;2023-04-06T14:39:08;8.00;99.90
43862;DHT22;29510;52.140;5.034;2023-04-06T14:49:10;7.90;99.90
43862;DHT22;29510;52.140;5.034;2023-04-06T14:59:11;7.80;99.90
43862;DHT22;29510;52.140;5.034;2023-04-06T15:09:12;7.90;99.90
43862;DHT22;29510;52.140;5.034;2023-04-06T15:19:14;7.70;99.90
43862;DHT22;29510;52.140;5.034;2023-04-06T15:29:15;7.80;99.90
43862;DHT22;29510;52.140;5.034;2023-04-06T15:39:16;7.80;99.90
43862;DHT22;29510;52.140;5.034;2023-04-06T15:49:17;7.80;99.90
43862;DHT22;29510;52.140;5.034;2023-04-06T15:59:18;7.80;99.90
43862;DHT22;29510;52.140;5.034;2023-04-06T16:09:19;7.80;99.90
43862;DHT22;29510;52.140;5.034;2023-04-06T16:19:20;7.80;99.90
43862;DHT22;29510;52.140;5.034;2023-04-06T16:29:21;7.80;99.90
43862;DHT22;29510;52.140;5.034;2023-04-06T16:39:22;7.80;99.90
43862;DHT22;29510;52.140;5.034;2023-04-06T16:49:23;7.90;99.90
43862;DHT22;29510;52.140;5.034;2023-04-06T16:59:24;7.90;99.90
43862;DHT22;29510;52.140;5.034;2023-04-06T17:09:25;8.00;99.90
43862;DHT22;29510;52.140;5.034;2023-04-06T17:19:26;8.00;99.90
43862;DHT22;29510;52.140;5.034;2023-04-06T17:29:29;8.00;99.90
43862;DHT22;29510;52.140;5.034;2023-04-06T17:39:30;8.00;99.90
43862;DHT22;29510;52.140;5.034;2023-04-06T17:49:31;8.10;99.90
43862;DHT22;29510;52.140;5.034;2023-04-06T17:59:32;8.00;99.90
43862;DHT22;29510;52.140;5.034;2023-04-06T18:09:33;8.10;99.90
43862;DHT22;29510;52.140;5.034;2023-04-06T18:19:34;8.10;99.90
43862;DHT22;29510;52.140;5.034;2023-04-06T18:29:35;8.10;99.90
43862;DHT22;29510;52.140;5.034;2023-04-06T18:39:36;8.20;99.90
43862;DHT22;29510;52.140;5.034;2023-04-06T18:49:37;8.30;99.90
43862;DHT22;29510;52.140;5.034;2023-04-06T18:59:38;8.20;99.90
43862;DHT22;29510;52.140;5.034;2023-04-06T19:09:39;8.30;99.90
43862;DHT22;29510;52.140;5.034;2023-04-06T19:19:40;8.30;99.90
43862;DHT22;29510;52.140;5.034;2023-04-06T19:29:41;8.40;99.90
43862;DHT22;29510;52.140;5.034;2023-04-06T19:39:42;8.40;99.90
43862;DHT22;29510;52.140;5.034;2023-04-06T19:49:44;8.40;99.90
43862;DHT22;29510;52.140;5.034;2023-04-06T19:59:45;8.40;99.90
43862;DHT22;29510;52.140;5.034;2023-04-06T20:09:46;8.60;99.90
43862;DHT22;29510;52.140;5.034;2023-04-06T20:19:47;8.70;99.90
43862;DHT22;29510;52.140;5.034;2023-04-06T20:29:49;8.70;99.90
43862;DHT22;29510;52.140;5.034;2023-04-06T20:39:50;8.70;99.90
43862;DHT22;29510;52.140;5.034;2023-04-06T20:49:52;8.80;99.90
43862;DHT22;29510;52.140;5.034;2023-04-06T20:59:53;8.80;99.90
43862;DHT22;29510;52.140;5.034;2023-04-06T21:09:55;8.80;99.90
43862;DHT22;29510;52.140;5.034;2023-04-06T21:19:56;9.00;99.90
43862;DHT22;29510;52.140;5.034;2023-04-06T21:29:57;9.00;99.90
43862;DHT22;29510;52.140;5.034;2023-04-06T21:39:58;9.10;99.90
43862;DHT22;29510;52.140;5.034;2023-04-06T21:50:01;9.10;99.90
43862;DHT22;29510;52.140;5.034;2023-04-06T22:00:04;9.10;99.90
43862;DHT22;29510;52.140;5.034;2023-04-06T22:10:09;8.90;99.90
43862;DHT22;29510;52.140;5.034;2023-04-06T22:20:10;8.90;99.90
43862;DHT22;29510;52.140;5.034;2023-04-06T22:30:11;8.90;99.90
43862;DHT22;29510;52.140;5.034;2023-04-06T22:40:12;8.80;99.90
43862;DHT22;29510;52.140;5.034;2023-04-06T22:50:13;8.80;99.90
43862;DHT22;29510;52.140;5.034;2023-04-06T23:00:15;8.70;99.90
43862;DHT22;29510;52.140;5.034;2023-04-06T23:10:17;8.70;99.90
43862;DHT22;29510;52.140;5.034;2023-04-06T23:20:19;8.60;99.90
43862;DHT22;29510;52.140;5.034;2023-04-06T23:30:21;8.60;99.90
43862;DHT22;29510;52.140;5.034;2023-04-06T23:40:22;8.60;99.90
43862;DHT22;29510;52.140;5.034;2023-04-06T23:50:24;8.50;99.90
